sensor_id;sensor_type;location;lat;lon;timestamp;P1;durP1;ratioP1;P2;durP2;ratioP2
50853;SDS011;44154;45.506;-122.806;2023-03-03T00:02:12;2.75;;;0.77;;
50853;SDS011;44154;45.506;-122.806;2023-03-03T00:04:38;8.63;;;0.93;;
50853;SDS011;44154;45.506;-122.806;2023-03-03T00:07:04;2.00;;;0.70;;
50853;SDS011;44154;45.506;-122.806;2023-03-03T00:09:30;1.27;;;0.50;;
50853;SDS011;44154;45.506;-122.806;2023-03-03T00:11:56;2.42;;;0.50;;
50853;SDS011;44154;45.506;-122.806;2023-03-03T00:14:29;1.77;;;0.70;;
50853;SDS011;44154;45.506;-122.806;2023-03-03T00:16:57;2.87;;;0.60;;
50853;SDS011;44154;45.506;-122.806;2023-03-03T00:19:26;2.33;;;0.50;;
50853;SDS011;44154;45.506;-122.806;2023-03-03T00:21:52;2.05;;;0.68;;
50853;SDS011;44154;45.506;-122.806;2023-03-03T00:27:06;2.90;;;0.60;;
50853;SDS011;44154;45.506;-122.806;2023-03-03T00:29:47;2.50;;;0.55;;
50853;SDS011;44154;45.506;-122.806;2023-03-03T00:32:24;3.05;;;1.08;;
50853;SDS011;44154;45.506;-122.806;2023-03-03T00:35:16;1.42;;;0.50;;
50853;SDS011;44154;45.506;-122.806;2023-03-03T00:37:47;1.83;;;0.47;;
50853;SDS011;44154;45.506;-122.806;2023-03-03T00:40:25;1.23;;;0.40;;
50853;SDS011;44154;45.506;-122.806;2023-03-03T00:42:56;0.55;;;0.30;;
50853;SDS011;44154;45.506;-122.806;2023-03-03T00:45:33;1.33;;;0.57;;
50853;SDS011;44154;45.506;-122.806;2023-03-03T00:51:07;0.93;;;0.40;;
50853;SDS011;44154;45.506;-122.806;2023-03-03T00:53:48;2.97;;;0.55;;
50853;SDS011;44154;45.506;-122.806;2023-03-03T00:56:15;1.98;;;0.80;;
50853;SDS011;44154;45.506;-122.806;2023-03-03T00:58:41;1.20;;;0.65;;
50853;SDS011;44154;45.506;-122.806;2023-03-03T01:01:10;3.05;;;0.55;;
50853;SDS011;44154;45.506;-122.806;2023-03-03T01:03:36;2.70;;;0.73;;
50853;SDS011;44154;45.506;-122.806;2023-03-03T01:06:02;3.58;;;0.80;;
50853;SDS011;44154;45.506;-122.806;2023-03-03T01:08:28;3.92;;;0.65;;
50853;SDS011;44154;45.506;-122.806;2023-03-03T01:10:55;2.60;;;0.50;;
50853;SDS011;44154;45.506;-122.806;2023-03-03T01:13:25;2.67;;;0.60;;
50853;SDS011;44154;45.506;-122.806;2023-03-03T01:15:54;2.47;;;0.55;;
50853;SDS011;44154;45.506;-122.806;2023-03-03T01:18:21;2.50;;;0.75;;
50853;SDS011;44154;45.506;-122.806;2023-03-03T01:20:47;3.08;;;0.60;;
50853;SDS011;44154;45.506;-122.806;2023-03-03T01:23:13;3.92;;;0.50;;
50853;SDS011;44154;45.506;-122.806;2023-03-03T01:25:40;4.05;;;0.65;;
50853;SDS011;44154;45.506;-122.806;2023-03-03T01:28:06;4.70;;;0.88;;
50853;SDS011;44154;45.506;-122.806;2023-03-03T01:30:32;4.40;;;0.60;;
50853;SDS011;44154;45.506;-122.806;2023-03-03T01:32:59;2.05;;;0.60;;
50853;SDS011;44154;45.506;-122.806;2023-03-03T01:35:25;3.33;;;0.70;;
50853;SDS011;44154;45.506;-122.806;2023-03-03T01:37:51;4.70;;;0.70;;
50853;SDS011;44154;45.506;-122.806;2023-03-03T01:40:20;6.82;;;0.90;;
50853;SDS011;44154;45.506;-122.806;2023-03-03T01:42:48;7.88;;;1.00;;
50853;SDS011;44154;45.506;-122.806;2023-03-03T01:47:50;3.40;;;0.70;;
50853;SDS011;44154;45.506;-122.806;2023-03-03T01:52:55;4.93;;;0.80;;
50853;SDS011;44154;45.506;-122.806;2023-03-03T01:55:26;4.57;;;0.73;;
50853;SDS011;44154;45.506;-122.806;2023-03-03T01:58:01;2.25;;;0.52;;
50853;SDS011;44154;45.506;-122.806;2023-03-03T02:00:50;2.97;;;0.50;;
50853;SDS011;44154;45.506;-122.806;2023-03-03T02:03:20;2.97;;;0.70;;
50853;SDS011;44154;45.506;-122.806;2023-03-03T02:05:48;2.97;;;0.70;;
50853;SDS011;44154;45.506;-122.806;2023-03-03T02:08:15;2.17;;;0.52;;
50853;SDS011;44154;45.506;-122.806;2023-03-03T02:10:46;2.05;;;0.43;;
50853;SDS011;44154;45.506;-122.806;2023-03-03T02:13:13;3.10;;;0.60;;
50853;SDS011;44154;45.506;-122.806;2023-03-03T02:15:39;4.50;;;0.50;;
50853;SDS011;44154;45.506;-122.806;2023-03-03T02:18:07;3.38;;;0.70;;
50853;SDS011;44154;45.506;-122.806;2023-03-03T02:23:17;3.47;;;0.90;;
50853;SDS011;44154;45.506;-122.806;2023-03-03T02:28:13;6.88;;;1.10;;
50853;SDS011;44154;45.506;-122.806;2023-03-03T02:30:40;7.60;;;0.98;;
50853;SDS011;44154;45.506;-122.806;2023-03-03T02:33:06;3.05;;;0.70;;
50853;SDS011;44154;45.506;-122.806;2023-03-03T02:35:33;7.40;;;0.90;;
50853;SDS011;44154;45.506;-122.806;2023-03-03T02:38:11;4.57;;;0.80;;
50853;SDS011;44154;45.506;-122.806;2023-03-03T02:40:43;3.75;;;0.60;;
50853;SDS011;44154;45.506;-122.806;2023-03-03T02:43:16;2.83;;;1.00;;
50853;SDS011;44154;45.506;-122.806;2023-03-03T02:45:46;2.35;;;0.80;;
50853;SDS011;44154;45.506;-122.806;2023-03-03T02:48:12;3.38;;;0.80;;
50853;SDS011;44154;45.506;-122.806;2023-03-03T02:50:39;3.05;;;0.75;;
50853;SDS011;44154;45.506;-122.806;2023-03-03T02:53:05;4.20;;;1.00;;
50853;SDS011;44154;45.506;-122.806;2023-03-03T02:55:31;4.45;;;1.10;;
50853;SDS011;44154;45.506;-122.806;2023-03-03T02:57:57;5.05;;;0.80;;
50853;SDS011;44154;45.506;-122.806;2023-03-03T03:00:23;5.45;;;1.30;;
50853;SDS011;44154;45.506;-122.806;2023-03-03T03:02:49;3.05;;;0.80;;
50853;SDS011;44154;45.506;-122.806;2023-03-03T03:05:15;2.03;;;0.57;;
50853;SDS011;44154;45.506;-122.806;2023-03-03T03:07:42;1.05;;;0.40;;
50853;SDS011;44154;45.506;-122.806;2023-03-03T03:10:08;1.65;;;0.43;;
50853;SDS011;44154;45.506;-122.806;2023-03-03T03:12:35;1.90;;;0.45;;
50853;SDS011;44154;45.506;-122.806;2023-03-03T03:15:01;3.13;;;0.60;;
50853;SDS011;44154;45.506;-122.806;2023-03-03T03:17:27;4.22;;;1.13;;
50853;SDS011;44154;45.506;-122.806;2023-03-03T03:19:53;6.30;;;1.20;;
50853;SDS011;44154;45.506;-122.806;2023-03-03T03:22:20;3.97;;;1.10;;
50853;SDS011;44154;45.506;-122.806;2023-03-03T03:24:46;2.53;;;0.63;;
50853;SDS011;44154;45.506;-122.806;2023-03-03T03:27:12;3.58;;;0.90;;
50853;SDS011;44154;45.506;-122.806;2023-03-03T03:29:38;2.58;;;0.80;;
50853;SDS011;44154;45.506;-122.806;2023-03-03T03:32:04;1.80;;;0.70;;
50853;SDS011;44154;45.506;-122.806;2023-03-03T03:34:30;2.97;;;0.65;;
50853;SDS011;44154;45.506;-122.806;2023-03-03T03:36:57;5.18;;;1.00;;
50853;SDS011;44154;45.506;-122.806;2023-03-03T03:39:23;2.67;;;0.65;;
50853;SDS011;44154;45.506;-122.806;2023-03-03T03:41:49;1.90;;;0.70;;
50853;SDS011;44154;45.506;-122.806;2023-03-03T03:44:15;4.50;;;0.70;;
50853;SDS011;44154;45.506;-122.806;2023-03-03T03:46:41;2.78;;;0.70;;
50853;SDS011;44154;45.506;-122.806;2023-03-03T03:49:07;5.50;;;0.70;;
50853;SDS011;44154;45.506;-122.806;2023-03-03T03:51:33;5.20;;;1.23;;
50853;SDS011;44154;45.506;-122.806;2023-03-03T03:54:02;4.55;;;0.80;;
50853;SDS011;44154;45.506;-122.806;2023-03-03T03:56:28;2.28;;;0.50;;
50853;SDS011;44154;45.506;-122.806;2023-03-03T03:58:54;2.92;;;0.63;;
50853;SDS011;44154;45.506;-122.806;2023-03-03T04:01:21;5.07;;;0.95;;
50853;SDS011;44154;45.506;-122.806;2023-03-03T04:03:47;4.40;;;0.82;;
50853;SDS011;44154;45.506;-122.806;2023-03-03T04:06:13;3.80;;;0.80;;
50853;SDS011;44154;45.506;-122.806;2023-03-03T04:08:39;3.15;;;0.60;;
50853;SDS011;44154;45.506;-122.806;2023-03-03T04:11:05;3.53;;;0.75;;
50853;SDS011;44154;45.506;-122.806;2023-03-03T04:13:31;4.70;;;0.70;;
50853;SDS011;44154;45.506;-122.806;2023-03-03T04:15:59;6.32;;;1.10;;
50853;SDS011;44154;45.506;-122.806;2023-03-03T04:18:26;4.50;;;0.80;;
50853;SDS011;44154;45.506;-122.806;2023-03-03T04:20:53;3.13;;;0.63;;
50853;SDS011;44154;45.506;-122.806;2023-03-03T04:23:19;2.05;;;0.63;;
50853;SDS011;44154;45.506;-122.806;2023-03-03T04:25:46;5.70;;;0.80;;
50853;SDS011;44154;45.506;-122.806;2023-03-03T04:28:14;4.60;;;0.77;;
50853;SDS011;44154;45.506;-122.806;2023-03-03T04:30:41;3.17;;;0.70;;
50853;SDS011;44154;45.506;-122.806;2023-03-03T04:33:07;4.53;;;0.70;;
50853;SDS011;44154;45.506;-122.806;2023-03-03T04:35:33;2.88;;;1.15;;
50853;SDS011;44154;45.506;-122.806;2023-03-03T04:37:59;3.47;;;1.40;;
50853;SDS011;44154;45.506;-122.806;2023-03-03T04:40:25;3.58;;;1.50;;
50853;SDS011;44154;45.506;-122.806;2023-03-03T04:42:52;2.25;;;1.15;;
50853;SDS011;44154;45.506;-122.806;2023-03-03T04:45:18;2.78;;;0.82;;
50853;SDS011;44154;45.506;-122.806;2023-03-03T04:47:44;4.13;;;1.58;;
50853;SDS011;44154;45.506;-122.806;2023-03-03T04:50:10;2.38;;;0.90;;
50853;SDS011;44154;45.506;-122.806;2023-03-03T04:52:36;3.20;;;1.00;;
50853;SDS011;44154;45.506;-122.806;2023-03-03T04:55:03;4.00;;;1.23;;
50853;SDS011;44154;45.506;-122.806;2023-03-03T04:57:30;2.38;;;0.90;;
50853;SDS011;44154;45.506;-122.806;2023-03-03T04:59:56;2.88;;;1.25;;
50853;SDS011;44154;45.506;-122.806;2023-03-03T05:02:22;5.57;;;1.20;;
50853;SDS011;44154;45.506;-122.806;2023-03-03T05:04:48;3.45;;;1.50;;
50853;SDS011;44154;45.506;-122.806;2023-03-03T05:07:14;6.50;;;5.15;;
50853;SDS011;44154;45.506;-122.806;2023-03-03T05:09:41;8.15;;;4.10;;
50853;SDS011;44154;45.506;-122.806;2023-03-03T05:12:08;5.30;;;3.00;;
50853;SDS011;44154;45.506;-122.806;2023-03-03T05:14:34;3.42;;;2.60;;
50853;SDS011;44154;45.506;-122.806;2023-03-03T05:17:00;3.65;;;2.10;;
50853;SDS011;44154;45.506;-122.806;2023-03-03T05:19:27;5.45;;;2.10;;
50853;SDS011;44154;45.506;-122.806;2023-03-03T05:21:53;3.10;;;2.22;;
50853;SDS011;44154;45.506;-122.806;2023-03-03T05:24:19;3.45;;;2.42;;
50853;SDS011;44154;45.506;-122.806;2023-03-03T05:26:46;3.63;;;2.30;;
50853;SDS011;44154;45.506;-122.806;2023-03-03T05:29:12;4.47;;;2.42;;
50853;SDS011;44154;45.506;-122.806;2023-03-03T05:31:38;3.25;;;1.92;;
50853;SDS011;44154;45.506;-122.806;2023-03-03T05:34:04;5.05;;;2.17;;
50853;SDS011;44154;45.506;-122.806;2023-03-03T05:36:30;6.32;;;4.95;;
50853;SDS011;44154;45.506;-122.806;2023-03-03T05:38:56;9.13;;;7.97;;
50853;SDS011;44154;45.506;-122.806;2023-03-03T05:41:23;6.55;;;5.78;;
50853;SDS011;44154;45.506;-122.806;2023-03-03T05:43:49;6.88;;;5.03;;
50853;SDS011;44154;45.506;-122.806;2023-03-03T05:46:15;4.43;;;3.72;;
50853;SDS011;44154;45.506;-122.806;2023-03-03T05:48:41;6.28;;;3.67;;
50853;SDS011;44154;45.506;-122.806;2023-03-03T05:51:07;11.02;;;3.92;;
50853;SDS011;44154;45.506;-122.806;2023-03-03T05:53:34;6.13;;;3.72;;
50853;SDS011;44154;45.506;-122.806;2023-03-03T05:56:00;6.88;;;3.63;;
50853;SDS011;44154;45.506;-122.806;2023-03-03T05:58:26;5.55;;;3.45;;
50853;SDS011;44154;45.506;-122.806;2023-03-03T06:00:52;6.43;;;3.65;;
50853;SDS011;44154;45.506;-122.806;2023-03-03T06:03:18;5.65;;;3.40;;
50853;SDS011;44154;45.506;-122.806;2023-03-03T06:05:45;6.72;;;4.05;;
50853;SDS011;44154;45.506;-122.806;2023-03-03T06:08:11;5.35;;;3.53;;
50853;SDS011;44154;45.506;-122.806;2023-03-03T06:10:37;4.88;;;3.55;;
50853;SDS011;44154;45.506;-122.806;2023-03-03T06:13:03;5.18;;;3.10;;
50853;SDS011;44154;45.506;-122.806;2023-03-03T06:15:29;6.97;;;3.78;;
50853;SDS011;44154;45.506;-122.806;2023-03-03T06:17:55;5.50;;;3.88;;
50853;SDS011;44154;45.506;-122.806;2023-03-03T06:20:21;5.40;;;3.90;;
50853;SDS011;44154;45.506;-122.806;2023-03-03T06:22:48;5.10;;;3.33;;
50853;SDS011;44154;45.506;-122.806;2023-03-03T06:25:14;5.57;;;3.55;;
50853;SDS011;44154;45.506;-122.806;2023-03-03T06:27:40;9.35;;;8.45;;
50853;SDS011;44154;45.506;-122.806;2023-03-03T06:30:06;15.85;;;14.35;;
50853;SDS011;44154;45.506;-122.806;2023-03-03T06:32:33;8.82;;;7.90;;
50853;SDS011;44154;45.506;-122.806;2023-03-03T06:34:59;8.48;;;7.30;;
50853;SDS011;44154;45.506;-122.806;2023-03-03T06:37:25;5.85;;;5.25;;
50853;SDS011;44154;45.506;-122.806;2023-03-03T06:39:51;7.47;;;5.18;;
50853;SDS011;44154;45.506;-122.806;2023-03-03T06:42:18;6.47;;;5.55;;
50853;SDS011;44154;45.506;-122.806;2023-03-03T06:44:45;7.53;;;6.68;;
50853;SDS011;44154;45.506;-122.806;2023-03-03T06:47:11;6.95;;;6.03;;
50853;SDS011;44154;45.506;-122.806;2023-03-03T06:49:38;6.90;;;6.20;;
50853;SDS011;44154;45.506;-122.806;2023-03-03T06:52:11;6.93;;;6.07;;
50853;SDS011;44154;45.506;-122.806;2023-03-03T06:54:39;6.55;;;5.82;;
50853;SDS011;44154;45.506;-122.806;2023-03-03T07:02:37;8.27;;;7.07;;
50853;SDS011;44154;45.506;-122.806;2023-03-03T07:05:05;7.57;;;6.78;;
50853;SDS011;44154;45.506;-122.806;2023-03-03T07:07:37;8.50;;;7.70;;
50853;SDS011;44154;45.506;-122.806;2023-03-03T07:10:23;7.95;;;6.78;;
50853;SDS011;44154;45.506;-122.806;2023-03-03T07:12:51;8.65;;;7.75;;
50853;SDS011;44154;45.506;-122.806;2023-03-03T07:15:30;8.45;;;7.65;;
50853;SDS011;44154;45.506;-122.806;2023-03-03T07:17:59;9.68;;;7.90;;
50853;SDS011;44154;45.506;-122.806;2023-03-03T07:20:35;7.97;;;7.18;;
50853;SDS011;44154;45.506;-122.806;2023-03-03T07:23:28;7.88;;;7.13;;
50853;SDS011;44154;45.506;-122.806;2023-03-03T07:25:55;8.50;;;7.60;;
50853;SDS011;44154;45.506;-122.806;2023-03-03T07:30:49;8.57;;;7.32;;
50853;SDS011;44154;45.506;-122.806;2023-03-03T07:36:28;7.95;;;7.15;;
50853;SDS011;44154;45.506;-122.806;2023-03-03T07:38:57;8.13;;;7.07;;
50853;SDS011;44154;45.506;-122.806;2023-03-03T07:41:37;27.60;;;25.10;;
50853;SDS011;44154;45.506;-122.806;2023-03-03T07:47:14;16.23;;;14.63;;
50853;SDS011;44154;45.506;-122.806;2023-03-03T07:49:47;10.02;;;8.98;;
50853;SDS011;44154;45.506;-122.806;2023-03-03T07:52:28;10.68;;;9.68;;
50853;SDS011;44154;45.506;-122.806;2023-03-03T07:57:57;13.23;;;11.93;;
50853;SDS011;44154;45.506;-122.806;2023-03-03T08:03:43;12.48;;;11.27;;
50853;SDS011;44154;45.506;-122.806;2023-03-03T08:09:01;11.82;;;10.63;;
50853;SDS011;44154;45.506;-122.806;2023-03-03T08:11:52;11.65;;;10.55;;
50853;SDS011;44154;45.506;-122.806;2023-03-03T08:14:36;11.80;;;10.60;;
50853;SDS011;44154;45.506;-122.806;2023-03-03T08:17:08;11.10;;;10.00;;
50853;SDS011;44154;45.506;-122.806;2023-03-03T08:19:42;22.88;;;20.73;;
50853;SDS011;44154;45.506;-122.806;2023-03-03T08:22:09;18.33;;;16.63;;
50853;SDS011;44154;45.506;-122.806;2023-03-03T08:24:40;13.60;;;12.33;;
50853;SDS011;44154;45.506;-122.806;2023-03-03T08:27:06;11.70;;;10.60;;
50853;SDS011;44154;45.506;-122.806;2023-03-03T08:29:32;10.48;;;9.48;;
50853;SDS011;44154;45.506;-122.806;2023-03-03T08:31:58;12.30;;;11.20;;
50853;SDS011;44154;45.506;-122.806;2023-03-03T08:34:24;13.85;;;12.55;;
50853;SDS011;44154;45.506;-122.806;2023-03-03T08:36:50;13.10;;;11.90;;
50853;SDS011;44154;45.506;-122.806;2023-03-03T08:39:16;14.23;;;12.93;;
50853;SDS011;44154;45.506;-122.806;2023-03-03T08:41:43;14.32;;;12.93;;
50853;SDS011;44154;45.506;-122.806;2023-03-03T08:44:10;12.68;;;11.52;;
50853;SDS011;44154;45.506;-122.806;2023-03-03T08:46:36;13.07;;;11.88;;
50853;SDS011;44154;45.506;-122.806;2023-03-03T08:49:03;12.95;;;11.75;;
50853;SDS011;44154;45.506;-122.806;2023-03-03T08:51:29;12.02;;;10.93;;
50853;SDS011;44154;45.506;-122.806;2023-03-03T08:53:57;14.45;;;13.00;;
50853;SDS011;44154;45.506;-122.806;2023-03-03T08:56:24;15.65;;;14.15;;
50853;SDS011;44154;45.506;-122.806;2023-03-03T08:58:50;14.43;;;13.07;;
50853;SDS011;44154;45.506;-122.806;2023-03-03T09:01:16;16.20;;;14.75;;
50853;SDS011;44154;45.506;-122.806;2023-03-03T09:03:42;12.13;;;10.93;;
50853;SDS011;44154;45.506;-122.806;2023-03-03T09:06:09;10.68;;;9.60;;
50853;SDS011;44154;45.506;-122.806;2023-03-03T09:08:36;12.57;;;11.30;;
50853;SDS011;44154;45.506;-122.806;2023-03-03T09:11:08;12.93;;;11.63;;
50853;SDS011;44154;45.506;-122.806;2023-03-03T09:13:36;12.77;;;11.55;;
50853;SDS011;44154;45.506;-122.806;2023-03-03T09:16:06;12.75;;;11.52;;
50853;SDS011;44154;45.506;-122.806;2023-03-03T09:18:40;12.55;;;11.30;;
50853;SDS011;44154;45.506;-122.806;2023-03-03T09:21:23;13.73;;;12.35;;
50853;SDS011;44154;45.506;-122.806;2023-03-03T09:23:57;12.70;;;11.45;;
50853;SDS011;44154;45.506;-122.806;2023-03-03T09:29:08;13.57;;;12.27;;
50853;SDS011;44154;45.506;-122.806;2023-03-03T09:31:44;21.80;;;19.70;;
50853;SDS011;44154;45.506;-122.806;2023-03-03T09:36:49;15.35;;;13.95;;
50853;SDS011;44154;45.506;-122.806;2023-03-03T09:47:31;13.05;;;11.85;;
50853;SDS011;44154;45.506;-122.806;2023-03-03T09:55:19;12.60;;;11.30;;
50853;SDS011;44154;45.506;-122.806;2023-03-03T10:00:40;24.15;;;21.88;;
50853;SDS011;44154;45.506;-122.806;2023-03-03T10:22:52;12.30;;;10.80;;
50853;SDS011;44154;45.506;-122.806;2023-03-03T10:34:06;10.77;;;9.68;;
50853;SDS011;44154;45.506;-122.806;2023-03-03T10:42:15;9.38;;;8.48;;
50853;SDS011;44154;45.506;-122.806;2023-03-03T10:45:04;9.27;;;8.38;;
50853;SDS011;44154;45.506;-122.806;2023-03-03T10:47:33;10.65;;;8.88;;
50853;SDS011;44154;45.506;-122.806;2023-03-03T10:55:44;12.65;;;11.45;;
50853;SDS011;44154;45.506;-122.806;2023-03-03T11:04:02;14.90;;;13.40;;
50853;SDS011;44154;45.506;-122.806;2023-03-03T11:12:03;9.57;;;8.60;;
50853;SDS011;44154;45.506;-122.806;2023-03-03T11:17:16;10.20;;;9.20;;
50853;SDS011;44154;45.506;-122.806;2023-03-03T11:25:24;18.05;;;16.15;;
50853;SDS011;44154;45.506;-122.806;2023-03-03T11:33:22;12.45;;;11.27;;
50853;SDS011;44154;45.506;-122.806;2023-03-03T11:46:28;10.80;;;9.70;;
50853;SDS011;44154;45.506;-122.806;2023-03-03T11:49:05;12.95;;;11.65;;
50853;SDS011;44154;45.506;-122.806;2023-03-03T11:51:46;11.15;;;10.07;;
50853;SDS011;44154;45.506;-122.806;2023-03-03T11:54:33;10.32;;;9.32;;
50853;SDS011;44154;45.506;-122.806;2023-03-03T12:03:09;8.05;;;7.25;;
50853;SDS011;44154;45.506;-122.806;2023-03-03T12:11:12;8.27;;;7.47;;
50853;SDS011;44154;45.506;-122.806;2023-03-03T12:16:50;8.48;;;7.68;;
50853;SDS011;44154;45.506;-122.806;2023-03-03T12:22:06;5.72;;;5.13;;
50853;SDS011;44154;45.506;-122.806;2023-03-03T12:24:37;5.88;;;5.28;;
50853;SDS011;44154;45.506;-122.806;2023-03-03T12:27:20;6.07;;;5.47;;
50853;SDS011;44154;45.506;-122.806;2023-03-03T12:30:02;6.55;;;5.80;;
50853;SDS011;44154;45.506;-122.806;2023-03-03T12:35:19;5.90;;;5.30;;
50853;SDS011;44154;45.506;-122.806;2023-03-03T12:38:19;5.55;;;4.93;;
50853;SDS011;44154;45.506;-122.806;2023-03-03T12:41:02;5.72;;;5.22;;
50853;SDS011;44154;45.506;-122.806;2023-03-03T12:46:19;4.50;;;3.78;;
50853;SDS011;44154;45.506;-122.806;2023-03-03T12:48:57;3.63;;;3.13;;
50853;SDS011;44154;45.506;-122.806;2023-03-03T12:54:10;4.40;;;3.75;;
50853;SDS011;44154;45.506;-122.806;2023-03-03T13:07:50;3.90;;;3.20;;
50853;SDS011;44154;45.506;-122.806;2023-03-03T13:10:15;3.58;;;3.10;;
50853;SDS011;44154;45.506;-122.806;2023-03-03T13:15:29;2.92;;;2.28;;
50853;SDS011;44154;45.506;-122.806;2023-03-03T13:29:18;3.10;;;2.65;;
50853;SDS011;44154;45.506;-122.806;2023-03-03T13:31:46;2.20;;;1.83;;
50853;SDS011;44154;45.506;-122.806;2023-03-03T13:44:55;1.40;;;1.10;;
50853;SDS011;44154;45.506;-122.806;2023-03-03T13:47:24;1.52;;;1.30;;
50853;SDS011;44154;45.506;-122.806;2023-03-03T13:52:48;1.83;;;1.10;;
50853;SDS011;44154;45.506;-122.806;2023-03-03T13:55:41;1.60;;;1.10;;
50853;SDS011;44154;45.506;-122.806;2023-03-03T14:06:04;1.10;;;0.73;;
50853;SDS011;44154;45.506;-122.806;2023-03-03T14:11:25;0.93;;;0.68;;
50853;SDS011;44154;45.506;-122.806;2023-03-03T14:17:01;0.85;;;0.68;;
50853;SDS011;44154;45.506;-122.806;2023-03-03T14:19:48;1.35;;;0.80;;
50853;SDS011;44154;45.506;-122.806;2023-03-03T14:22:25;1.10;;;0.68;;
50853;SDS011;44154;45.506;-122.806;2023-03-03T14:25:08;0.95;;;0.80;;
50853;SDS011;44154;45.506;-122.806;2023-03-03T14:33:00;0.77;;;0.55;;
50853;SDS011;44154;45.506;-122.806;2023-03-03T14:35:29;0.70;;;0.57;;
50853;SDS011;44154;45.506;-122.806;2023-03-03T14:38:20;1.08;;;0.60;;
50853;SDS011;44154;45.506;-122.806;2023-03-03T14:41:02;1.40;;;0.52;;
50853;SDS011;44154;45.506;-122.806;2023-03-03T14:43:37;0.88;;;0.50;;
50853;SDS011;44154;45.506;-122.806;2023-03-03T14:48:54;0.57;;;0.47;;
50853;SDS011;44154;45.506;-122.806;2023-03-03T14:51:26;0.95;;;0.50;;
50853;SDS011;44154;45.506;-122.806;2023-03-03T14:54:12;0.68;;;0.40;;
50853;SDS011;44154;45.506;-122.806;2023-03-03T14:56:54;1.20;;;0.40;;
50853;SDS011;44154;45.506;-122.806;2023-03-03T14:59:57;0.50;;;0.30;;
50853;SDS011;44154;45.506;-122.806;2023-03-03T15:02:34;1.73;;;0.40;;
50853;SDS011;44154;45.506;-122.806;2023-03-03T15:07:52;0.77;;;0.40;;
50853;SDS011;44154;45.506;-122.806;2023-03-03T15:10:27;2.78;;;0.40;;
50853;SDS011;44154;45.506;-122.806;2023-03-03T15:13:07;2.45;;;0.52;;
50853;SDS011;44154;45.506;-122.806;2023-03-03T15:16:00;1.38;;;0.40;;
50853;SDS011;44154;45.506;-122.806;2023-03-03T15:32:05;1.95;;;0.40;;
50853;SDS011;44154;45.506;-122.806;2023-03-03T15:56:12;0.93;;;0.30;;
50853;SDS011;44154;45.506;-122.806;2023-03-03T16:04:37;1.42;;;0.40;;
50853;SDS011;44154;45.506;-122.806;2023-03-03T16:07:13;3.03;;;0.50;;
50853;SDS011;44154;45.506;-122.806;2023-03-03T16:20:51;0.65;;;0.28;;
50853;SDS011;44154;45.506;-122.806;2023-03-03T16:23:34;1.60;;;0.30;;
50853;SDS011;44154;45.506;-122.806;2023-03-03T16:32:04;2.22;;;0.40;;
50853;SDS011;44154;45.506;-122.806;2023-03-03T16:34:53;0.73;;;0.30;;
50853;SDS011;44154;45.506;-122.806;2023-03-03T16:38:01;1.45;;;0.43;;
50853;SDS011;44154;45.506;-122.806;2023-03-03T16:40:56;0.93;;;0.40;;
50853;SDS011;44154;45.506;-122.806;2023-03-03T16:48:59;1.88;;;0.30;;
50853;SDS011;44154;45.506;-122.806;2023-03-03T16:51:44;0.93;;;0.40;;
50853;SDS011;44154;45.506;-122.806;2023-03-03T16:56:54;0.98;;;0.22;;
50853;SDS011;44154;45.506;-122.806;2023-03-03T17:02:19;0.57;;;0.30;;
50853;SDS011;44154;45.506;-122.806;2023-03-03T17:07:42;3.08;;;0.40;;
50853;SDS011;44154;45.506;-122.806;2023-03-03T17:16:09;1.30;;;0.40;;
50853;SDS011;44154;45.506;-122.806;2023-03-03T17:18:49;1.48;;;0.40;;
50853;SDS011;44154;45.506;-122.806;2023-03-03T17:21:19;1.25;;;0.45;;
50853;SDS011;44154;45.506;-122.806;2023-03-03T17:29:42;0.88;;;0.30;;
50853;SDS011;44154;45.506;-122.806;2023-03-03T17:32:22;0.70;;;0.30;;
50853;SDS011;44154;45.506;-122.806;2023-03-03T17:38:02;1.45;;;0.30;;
50853;SDS011;44154;45.506;-122.806;2023-03-03T17:46:29;0.88;;;0.20;;
50853;SDS011;44154;45.506;-122.806;2023-03-03T17:49:06;0.45;;;0.25;;
50853;SDS011;44154;45.506;-122.806;2023-03-03T18:22:54;1.73;;;0.20;;
50853;SDS011;44154;45.506;-122.806;2023-03-03T18:26:06;0.60;;;0.30;;
50853;SDS011;44154;45.506;-122.806;2023-03-03T18:28:20;1.15;;;0.30;;
50853;SDS011;44154;45.506;-122.806;2023-03-03T18:33:29;3.60;;;0.47;;
50853;SDS011;44154;45.506;-122.806;2023-03-03T18:36:07;10.07;;;0.95;;
50853;SDS011;44154;45.506;-122.806;2023-03-03T18:38:39;2.92;;;0.60;;
50853;SDS011;44154;45.506;-122.806;2023-03-03T18:41:12;2.88;;;0.40;;
50853;SDS011;44154;45.506;-122.806;2023-03-03T18:44:22;2.25;;;0.60;;
50853;SDS011;44154;45.506;-122.806;2023-03-03T18:46:52;2.00;;;0.43;;
50853;SDS011;44154;45.506;-122.806;2023-03-03T18:49:48;3.00;;;0.40;;
50853;SDS011;44154;45.506;-122.806;2023-03-03T18:52:26;2.70;;;0.40;;
50853;SDS011;44154;45.506;-122.806;2023-03-03T18:55:00;4.03;;;0.50;;
50853;SDS011;44154;45.506;-122.806;2023-03-03T18:57:36;3.38;;;0.60;;
50853;SDS011;44154;45.506;-122.806;2023-03-03T19:02:52;4.55;;;0.70;;
50853;SDS011;44154;45.506;-122.806;2023-03-03T19:05:25;2.33;;;0.60;;
50853;SDS011;44154;45.506;-122.806;2023-03-03T19:08:03;2.10;;;0.40;;
50853;SDS011;44154;45.506;-122.806;2023-03-03T19:41:24;2.15;;;1.42;;
50853;SDS011;44154;45.506;-122.806;2023-03-03T19:47:06;2.17;;;1.10;;
50853;SDS011;44154;45.506;-122.806;2023-03-03T19:52:54;2.72;;;2.30;;
50853;SDS011;44154;45.506;-122.806;2023-03-03T19:55:53;4.70;;;1.75;;
50853;SDS011;44154;45.506;-122.806;2023-03-03T19:58:39;2.70;;;2.10;;
50853;SDS011;44154;45.506;-122.806;2023-03-03T20:04:24;5.05;;;2.38;;
50853;SDS011;44154;45.506;-122.806;2023-03-03T20:13:54;4.18;;;2.20;;
50853;SDS011;44154;45.506;-122.806;2023-03-03T20:21:42;3.25;;;2.10;;
50853;SDS011;44154;45.506;-122.806;2023-03-03T20:27:04;2.05;;;1.33;;
50853;SDS011;44154;45.506;-122.806;2023-03-03T20:47:02;2.53;;;1.00;;
50853;SDS011;44154;45.506;-122.806;2023-03-03T20:55:16;1.75;;;0.93;;
50853;SDS011;44154;45.506;-122.806;2023-03-03T21:00:47;1.67;;;0.70;;
50853;SDS011;44154;45.506;-122.806;2023-03-03T21:05:54;1.02;;;0.50;;
50853;SDS011;44154;45.506;-122.806;2023-03-03T21:11:16;4.43;;;0.50;;
50853;SDS011;44154;45.506;-122.806;2023-03-03T21:13:45;1.57;;;0.50;;
50853;SDS011;44154;45.506;-122.806;2023-03-03T21:18:58;1.80;;;0.47;;
50853;SDS011;44154;45.506;-122.806;2023-03-03T21:21:33;1.45;;;0.50;;
50853;SDS011;44154;45.506;-122.806;2023-03-03T21:24:01;0.60;;;0.30;;
50853;SDS011;44154;45.506;-122.806;2023-03-03T21:31:48;2.85;;;0.40;;
50853;SDS011;44154;45.506;-122.806;2023-03-03T21:34:21;3.23;;;0.50;;
50853;SDS011;44154;45.506;-122.806;2023-03-03T21:37:10;1.73;;;0.60;;
50853;SDS011;44154;45.506;-122.806;2023-03-03T21:39:40;3.58;;;0.80;;
50853;SDS011;44154;45.506;-122.806;2023-03-03T21:44:42;3.22;;;0.40;;
50853;SDS011;44154;45.506;-122.806;2023-03-03T21:47:20;3.30;;;0.32;;
50853;SDS011;44154;45.506;-122.806;2023-03-03T21:49:49;6.15;;;0.70;;
50853;SDS011;44154;45.506;-122.806;2023-03-03T21:52:17;5.30;;;0.77;;
50853;SDS011;44154;45.506;-122.806;2023-03-03T21:54:45;9.43;;;0.70;;
50853;SDS011;44154;45.506;-122.806;2023-03-03T21:57:13;5.40;;;0.60;;
50853;SDS011;44154;45.506;-122.806;2023-03-03T21:59:40;4.20;;;0.70;;
50853;SDS011;44154;45.506;-122.806;2023-03-03T22:02:06;3.13;;;0.57;;